sensor_id;sensor_type;location;lat;lon;timestamp;P1;durP1;ratioP1;P2;durP2;ratioP2
39454;SDS011;25155;41.890;23.446;2023-03-14T00:00:08;8.88;;;6.00;;
39454;SDS011;25155;41.890;23.446;2023-03-14T00:02:37;12.20;;;7.28;;
39454;SDS011;25155;41.890;23.446;2023-03-14T00:05:05;10.38;;;6.25;;
39454;SDS011;25155;41.890;23.446;2023-03-14T00:07:34;8.90;;;5.70;;
39454;SDS011;25155;41.890;23.446;2023-03-14T00:10:03;7.68;;;4.85;;
39454;SDS011;25155;41.890;23.446;2023-03-14T00:12:33;7.70;;;4.40;;
39454;SDS011;25155;41.890;23.446;2023-03-14T00:15:01;8.30;;;5.20;;
39454;SDS011;25155;41.890;23.446;2023-03-14T00:17:29;7.25;;;4.47;;
39454;SDS011;25155;41.890;23.446;2023-03-14T00:19:57;8.88;;;4.93;;
39454;SDS011;25155;41.890;23.446;2023-03-14T00:22:33;7.43;;;4.50;;
39454;SDS011;25155;41.890;23.446;2023-03-14T00:25:01;7.85;;;5.18;;
39454;SDS011;25155;41.890;23.446;2023-03-14T00:27:28;8.05;;;5.13;;
39454;SDS011;25155;41.890;23.446;2023-03-14T00:30:00;8.40;;;5.18;;
39454;SDS011;25155;41.890;23.446;2023-03-14T00:32:28;6.70;;;4.18;;
39454;SDS011;25155;41.890;23.446;2023-03-14T00:34:55;6.72;;;4.15;;
39454;SDS011;25155;41.890;23.446;2023-03-14T00:37:22;5.80;;;3.75;;
39454;SDS011;25155;41.890;23.446;2023-03-14T00:39:51;5.28;;;3.33;;
39454;SDS011;25155;41.890;23.446;2023-03-14T00:42:18;5.85;;;3.58;;
39454;SDS011;25155;41.890;23.446;2023-03-14T00:44:45;6.30;;;3.50;;
39454;SDS011;25155;41.890;23.446;2023-03-14T00:47:14;10.00;;;6.18;;
39454;SDS011;25155;41.890;23.446;2023-03-14T00:49:41;8.60;;;5.03;;
39454;SDS011;25155;41.890;23.446;2023-03-14T00:52:09;6.65;;;4.50;;
39454;SDS011;25155;41.890;23.446;2023-03-14T00:54:36;7.07;;;4.22;;
39454;SDS011;25155;41.890;23.446;2023-03-14T00:57:03;6.35;;;3.50;;
39454;SDS011;25155;41.890;23.446;2023-03-14T00:59:31;7.88;;;4.75;;
39454;SDS011;25155;41.890;23.446;2023-03-14T01:01:59;7.82;;;4.90;;
39454;SDS011;25155;41.890;23.446;2023-03-14T01:04:27;7.88;;;4.82;;
39454;SDS011;25155;41.890;23.446;2023-03-14T01:06:56;6.75;;;4.47;;
39454;SDS011;25155;41.890;23.446;2023-03-14T01:09:23;6.70;;;4.30;;
39454;SDS011;25155;41.890;23.446;2023-03-14T01:11:50;6.13;;;3.80;;
39454;SDS011;25155;41.890;23.446;2023-03-14T01:14:17;8.73;;;5.50;;
39454;SDS011;25155;41.890;23.446;2023-03-14T01:16:44;8.27;;;4.93;;
39454;SDS011;25155;41.890;23.446;2023-03-14T01:19:12;6.68;;;4.20;;
39454;SDS011;25155;41.890;23.446;2023-03-14T01:21:41;6.85;;;3.90;;
39454;SDS011;25155;41.890;23.446;2023-03-14T01:24:10;7.03;;;4.90;;
39454;SDS011;25155;41.890;23.446;2023-03-14T01:26:38;7.88;;;4.75;;
39454;SDS011;25155;41.890;23.446;2023-03-14T01:29:05;7.28;;;4.30;;
39454;SDS011;25155;41.890;23.446;2023-03-14T01:31:32;8.60;;;5.28;;
39454;SDS011;25155;41.890;23.446;2023-03-14T01:33:59;7.95;;;4.88;;
39454;SDS011;25155;41.890;23.446;2023-03-14T01:36:27;9.05;;;6.05;;
39454;SDS011;25155;41.890;23.446;2023-03-14T01:38:56;8.80;;;5.30;;
39454;SDS011;25155;41.890;23.446;2023-03-14T01:41:24;7.53;;;4.85;;
39454;SDS011;25155;41.890;23.446;2023-03-14T01:43:52;8.13;;;4.18;;
39454;SDS011;25155;41.890;23.446;2023-03-14T01:46:20;6.93;;;4.30;;
39454;SDS011;25155;41.890;23.446;2023-03-14T01:48:53;8.75;;;5.30;;
39454;SDS011;25155;41.890;23.446;2023-03-14T01:51:28;8.45;;;5.10;;
39454;SDS011;25155;41.890;23.446;2023-03-14T01:54:01;10.70;;;5.82;;
39454;SDS011;25155;41.890;23.446;2023-03-14T01:56:33;9.32;;;6.03;;
39454;SDS011;25155;41.890;23.446;2023-03-14T01:59:03;8.02;;;5.15;;
39454;SDS011;25155;41.890;23.446;2023-03-14T02:01:33;8.23;;;4.88;;
39454;SDS011;25155;41.890;23.446;2023-03-14T02:04:02;8.98;;;5.18;;
39454;SDS011;25155;41.890;23.446;2023-03-14T02:06:35;9.80;;;5.68;;
39454;SDS011;25155;41.890;23.446;2023-03-14T02:09:10;8.45;;;5.30;;
39454;SDS011;25155;41.890;23.446;2023-03-14T02:11:38;10.88;;;6.28;;
39454;SDS011;25155;41.890;23.446;2023-03-14T02:14:05;9.98;;;6.00;;
39454;SDS011;25155;41.890;23.446;2023-03-14T02:16:34;10.93;;;6.63;;
39454;SDS011;25155;41.890;23.446;2023-03-14T02:19:02;8.75;;;5.45;;
39454;SDS011;25155;41.890;23.446;2023-03-14T02:21:37;9.23;;;5.30;;
39454;SDS011;25155;41.890;23.446;2023-03-14T02:24:15;9.73;;;6.00;;
39454;SDS011;25155;41.890;23.446;2023-03-14T02:27:04;13.85;;;8.07;;
39454;SDS011;25155;41.890;23.446;2023-03-14T02:29:36;12.27;;;7.72;;
39454;SDS011;25155;41.890;23.446;2023-03-14T02:32:07;14.02;;;8.18;;
39454;SDS011;25155;41.890;23.446;2023-03-14T02:34:35;16.02;;;10.15;;
39454;SDS011;25155;41.890;23.446;2023-03-14T02:37:03;14.02;;;8.13;;
39454;SDS011;25155;41.890;23.446;2023-03-14T02:39:35;10.30;;;6.30;;
39454;SDS011;25155;41.890;23.446;2023-03-14T02:42:06;7.80;;;4.80;;
39454;SDS011;25155;41.890;23.446;2023-03-14T02:44:33;7.53;;;4.78;;
39454;SDS011;25155;41.890;23.446;2023-03-14T02:47:01;9.18;;;5.60;;
39454;SDS011;25155;41.890;23.446;2023-03-14T02:49:29;11.85;;;6.28;;
39454;SDS011;25155;41.890;23.446;2023-03-14T02:51:59;9.98;;;6.25;;
39454;SDS011;25155;41.890;23.446;2023-03-14T02:54:26;11.45;;;6.68;;
39454;SDS011;25155;41.890;23.446;2023-03-14T02:56:53;10.05;;;5.85;;
39454;SDS011;25155;41.890;23.446;2023-03-14T02:59:21;10.65;;;5.93;;
39454;SDS011;25155;41.890;23.446;2023-03-14T03:01:49;12.20;;;6.70;;
39454;SDS011;25155;41.890;23.446;2023-03-14T03:04:16;9.77;;;6.15;;
39454;SDS011;25155;41.890;23.446;2023-03-14T03:06:43;10.93;;;6.18;;
39454;SDS011;25155;41.890;23.446;2023-03-14T03:09:10;7.72;;;5.43;;
39454;SDS011;25155;41.890;23.446;2023-03-14T03:11:37;9.15;;;5.53;;
39454;SDS011;25155;41.890;23.446;2023-03-14T03:14:04;10.15;;;6.25;;
39454;SDS011;25155;41.890;23.446;2023-03-14T03:16:33;7.93;;;4.82;;
39454;SDS011;25155;41.890;23.446;2023-03-14T03:19:00;8.70;;;5.13;;
39454;SDS011;25155;41.890;23.446;2023-03-14T03:21:27;7.55;;;4.72;;
39454;SDS011;25155;41.890;23.446;2023-03-14T03:23:54;6.80;;;4.25;;
39454;SDS011;25155;41.890;23.446;2023-03-14T03:26:21;6.93;;;4.20;;
39454;SDS011;25155;41.890;23.446;2023-03-14T03:28:50;6.50;;;4.10;;
39454;SDS011;25155;41.890;23.446;2023-03-14T03:31:17;7.15;;;4.35;;
39454;SDS011;25155;41.890;23.446;2023-03-14T03:33:46;8.43;;;5.10;;
39454;SDS011;25155;41.890;23.446;2023-03-14T03:36:13;8.93;;;5.35;;
39454;SDS011;25155;41.890;23.446;2023-03-14T03:38:40;7.82;;;4.75;;
39454;SDS011;25155;41.890;23.446;2023-03-14T03:41:07;7.25;;;4.35;;
39454;SDS011;25155;41.890;23.446;2023-03-14T03:43:35;7.25;;;4.15;;
39454;SDS011;25155;41.890;23.446;2023-03-14T03:46:02;7.30;;;4.00;;
39454;SDS011;25155;41.890;23.446;2023-03-14T03:48:31;6.95;;;3.88;;
39454;SDS011;25155;41.890;23.446;2023-03-14T03:51:03;8.32;;;4.45;;
39454;SDS011;25155;41.890;23.446;2023-03-14T03:53:31;7.53;;;4.95;;
39454;SDS011;25155;41.890;23.446;2023-03-14T03:55:58;10.52;;;6.72;;
39454;SDS011;25155;41.890;23.446;2023-03-14T03:58:26;8.85;;;5.55;;
39454;SDS011;25155;41.890;23.446;2023-03-14T04:00:53;7.03;;;4.68;;
39454;SDS011;25155;41.890;23.446;2023-03-14T04:03:21;7.47;;;5.07;;
39454;SDS011;25155;41.890;23.446;2023-03-14T04:05:57;6.93;;;4.65;;
39454;SDS011;25155;41.890;23.446;2023-03-14T04:08:26;6.40;;;3.92;;
39454;SDS011;25155;41.890;23.446;2023-03-14T04:10:55;7.07;;;4.43;;
39454;SDS011;25155;41.890;23.446;2023-03-14T04:13:23;9.93;;;5.28;;
39454;SDS011;25155;41.890;23.446;2023-03-14T04:15:50;9.82;;;5.32;;
39454;SDS011;25155;41.890;23.446;2023-03-14T04:18:18;9.10;;;5.80;;
39454;SDS011;25155;41.890;23.446;2023-03-14T04:20:49;8.05;;;5.28;;
39454;SDS011;25155;41.890;23.446;2023-03-14T04:23:18;10.93;;;6.35;;
39454;SDS011;25155;41.890;23.446;2023-03-14T04:25:46;9.50;;;5.70;;
39454;SDS011;25155;41.890;23.446;2023-03-14T04:28:14;9.57;;;6.47;;
39454;SDS011;25155;41.890;23.446;2023-03-14T04:30:41;9.30;;;5.70;;
39454;SDS011;25155;41.890;23.446;2023-03-14T04:33:08;8.00;;;5.25;;
39454;SDS011;25155;41.890;23.446;2023-03-14T04:35:38;8.60;;;5.47;;
39454;SDS011;25155;41.890;23.446;2023-03-14T04:38:05;7.82;;;5.63;;
39454;SDS011;25155;41.890;23.446;2023-03-14T04:40:33;8.40;;;5.28;;
39454;SDS011;25155;41.890;23.446;2023-03-14T04:43:01;9.18;;;5.85;;
39454;SDS011;25155;41.890;23.446;2023-03-14T04:45:30;9.40;;;5.40;;
39454;SDS011;25155;41.890;23.446;2023-03-14T04:47:58;8.68;;;5.35;;
39454;SDS011;25155;41.890;23.446;2023-03-14T04:50:25;7.63;;;4.97;;
39454;SDS011;25155;41.890;23.446;2023-03-14T04:52:52;8.63;;;4.90;;
39454;SDS011;25155;41.890;23.446;2023-03-14T04:55:19;8.38;;;5.25;;
39454;SDS011;25155;41.890;23.446;2023-03-14T04:57:46;10.77;;;5.78;;
39454;SDS011;25155;41.890;23.446;2023-03-14T05:00:15;11.63;;;6.68;;
39454;SDS011;25155;41.890;23.446;2023-03-14T05:02:44;23.77;;;13.52;;
39454;SDS011;25155;41.890;23.446;2023-03-14T05:05:12;33.75;;;18.83;;
39454;SDS011;25155;41.890;23.446;2023-03-14T05:07:40;27.92;;;17.05;;
39454;SDS011;25155;41.890;23.446;2023-03-14T05:10:07;28.60;;;16.92;;
39454;SDS011;25155;41.890;23.446;2023-03-14T05:12:35;26.58;;;16.48;;
39454;SDS011;25155;41.890;23.446;2023-03-14T05:15:03;25.55;;;16.13;;
39454;SDS011;25155;41.890;23.446;2023-03-14T05:17:33;25.10;;;15.45;;
39454;SDS011;25155;41.890;23.446;2023-03-14T05:20:01;30.85;;;18.77;;
39454;SDS011;25155;41.890;23.446;2023-03-14T05:24:59;29.20;;;17.65;;
39454;SDS011;25155;41.890;23.446;2023-03-14T05:27:27;24.92;;;15.65;;
39454;SDS011;25155;41.890;23.446;2023-03-14T05:29:54;21.08;;;13.90;;
39454;SDS011;25155;41.890;23.446;2023-03-14T05:32:22;31.25;;;18.20;;
39454;SDS011;25155;41.890;23.446;2023-03-14T05:34:51;35.10;;;21.55;;
39454;SDS011;25155;41.890;23.446;2023-03-14T05:37:18;35.33;;;22.63;;
39454;SDS011;25155;41.890;23.446;2023-03-14T05:39:45;42.08;;;26.30;;
39454;SDS011;25155;41.890;23.446;2023-03-14T05:42:12;40.80;;;24.05;;
39454;SDS011;25155;41.890;23.446;2023-03-14T05:44:39;37.65;;;21.73;;
39454;SDS011;25155;41.890;23.446;2023-03-14T05:47:06;39.13;;;24.08;;
39454;SDS011;25155;41.890;23.446;2023-03-14T05:49:34;37.17;;;22.77;;
39454;SDS011;25155;41.890;23.446;2023-03-14T05:52:03;33.90;;;20.52;;
39454;SDS011;25155;41.890;23.446;2023-03-14T05:54:30;31.35;;;19.90;;
39454;SDS011;25155;41.890;23.446;2023-03-14T05:56:58;26.40;;;16.10;;
39454;SDS011;25155;41.890;23.446;2023-03-14T05:59:25;28.42;;;18.63;;
39454;SDS011;25155;41.890;23.446;2023-03-14T06:01:52;30.20;;;19.88;;
39454;SDS011;25155;41.890;23.446;2023-03-14T06:04:19;32.00;;;19.98;;
39454;SDS011;25155;41.890;23.446;2023-03-14T06:06:46;29.88;;;19.08;;
39454;SDS011;25155;41.890;23.446;2023-03-14T06:09:15;30.25;;;20.63;;
39454;SDS011;25155;41.890;23.446;2023-03-14T06:11:45;35.63;;;22.07;;
39454;SDS011;25155;41.890;23.446;2023-03-14T06:14:12;30.67;;;19.80;;
39454;SDS011;25155;41.890;23.446;2023-03-14T06:16:40;27.77;;;18.90;;
39454;SDS011;25155;41.890;23.446;2023-03-14T06:19:07;35.35;;;21.40;;
39454;SDS011;25155;41.890;23.446;2023-03-14T06:21:34;30.27;;;20.85;;
39454;SDS011;25155;41.890;23.446;2023-03-14T06:24:01;31.25;;;19.83;;
39454;SDS011;25155;41.890;23.446;2023-03-14T06:26:30;30.85;;;19.70;;
39454;SDS011;25155;41.890;23.446;2023-03-14T06:28:57;33.58;;;21.27;;
39454;SDS011;25155;41.890;23.446;2023-03-14T06:31:28;29.20;;;19.83;;
39454;SDS011;25155;41.890;23.446;2023-03-14T06:33:56;31.88;;;20.13;;
39454;SDS011;25155;41.890;23.446;2023-03-14T06:36:23;30.27;;;18.95;;
39454;SDS011;25155;41.890;23.446;2023-03-14T06:38:50;35.50;;;21.85;;
39454;SDS011;25155;41.890;23.446;2023-03-14T06:41:17;28.50;;;18.88;;
39454;SDS011;25155;41.890;23.446;2023-03-14T06:43:46;28.83;;;19.25;;
39454;SDS011;25155;41.890;23.446;2023-03-14T06:46:13;28.05;;;18.75;;
39454;SDS011;25155;41.890;23.446;2023-03-14T06:48:40;24.83;;;16.90;;
39454;SDS011;25155;41.890;23.446;2023-03-14T06:51:08;25.38;;;16.58;;
39454;SDS011;25155;41.890;23.446;2023-03-14T06:53:35;23.25;;;16.17;;
39454;SDS011;25155;41.890;23.446;2023-03-14T06:56:02;31.10;;;20.77;;
39454;SDS011;25155;41.890;23.446;2023-03-14T06:58:29;36.67;;;25.02;;
39454;SDS011;25155;41.890;23.446;2023-03-14T07:00:58;46.28;;;30.00;;
39454;SDS011;25155;41.890;23.446;2023-03-14T07:03:25;49.22;;;31.33;;
39454;SDS011;25155;41.890;23.446;2023-03-14T07:05:53;54.40;;;33.60;;
39454;SDS011;25155;41.890;23.446;2023-03-14T07:08:20;52.58;;;34.90;;
39454;SDS011;25155;41.890;23.446;2023-03-14T07:10:47;67.18;;;39.63;;
39454;SDS011;25155;41.890;23.446;2023-03-14T07:13:14;56.97;;;36.80;;
39454;SDS011;25155;41.890;23.446;2023-03-14T07:15:41;54.95;;;35.40;;
39454;SDS011;25155;41.890;23.446;2023-03-14T07:18:10;48.72;;;30.20;;
39454;SDS011;25155;41.890;23.446;2023-03-14T07:20:37;43.78;;;28.08;;
39454;SDS011;25155;41.890;23.446;2023-03-14T07:23:05;44.55;;;27.25;;
39454;SDS011;25155;41.890;23.446;2023-03-14T07:25:32;43.20;;;26.67;;
39454;SDS011;25155;41.890;23.446;2023-03-14T07:27:59;34.88;;;23.00;;
39454;SDS011;25155;41.890;23.446;2023-03-14T07:30:26;38.05;;;23.88;;
39454;SDS011;25155;41.890;23.446;2023-03-14T07:32:53;41.63;;;25.52;;
39454;SDS011;25155;41.890;23.446;2023-03-14T07:35:22;44.28;;;27.73;;
39454;SDS011;25155;41.890;23.446;2023-03-14T07:37:49;36.17;;;22.83;;
39454;SDS011;25155;41.890;23.446;2023-03-14T07:40:17;34.38;;;22.42;;
39454;SDS011;25155;41.890;23.446;2023-03-14T07:42:44;34.63;;;22.77;;
39454;SDS011;25155;41.890;23.446;2023-03-14T07:45:11;39.10;;;25.92;;
39454;SDS011;25155;41.890;23.446;2023-03-14T07:47:39;34.25;;;22.92;;
39454;SDS011;25155;41.890;23.446;2023-03-14T07:50:06;29.27;;;19.55;;
39454;SDS011;25155;41.890;23.446;2023-03-14T07:52:36;27.67;;;19.15;;
39454;SDS011;25155;41.890;23.446;2023-03-14T07:55:03;35.15;;;22.75;;
39454;SDS011;25155;41.890;23.446;2023-03-14T07:57:31;32.30;;;21.85;;
39454;SDS011;25155;41.890;23.446;2023-03-14T07:59:58;25.05;;;16.05;;
39454;SDS011;25155;41.890;23.446;2023-03-14T08:02:25;22.80;;;15.40;;
39454;SDS011;25155;41.890;23.446;2023-03-14T08:04:52;26.55;;;18.20;;
39454;SDS011;25155;41.890;23.446;2023-03-14T08:07:19;32.33;;;20.50;;
39454;SDS011;25155;41.890;23.446;2023-03-14T08:09:48;28.23;;;19.05;;
39454;SDS011;25155;41.890;23.446;2023-03-14T08:12:15;22.85;;;15.55;;
39454;SDS011;25155;41.890;23.446;2023-03-14T08:14:42;25.02;;;16.92;;
39454;SDS011;25155;41.890;23.446;2023-03-14T08:17:09;22.60;;;15.73;;
39454;SDS011;25155;41.890;23.446;2023-03-14T08:19:36;20.65;;;15.05;;
39454;SDS011;25155;41.890;23.446;2023-03-14T08:22:03;25.58;;;17.42;;
39454;SDS011;25155;41.890;23.446;2023-03-14T08:24:31;24.30;;;16.75;;
39454;SDS011;25155;41.890;23.446;2023-03-14T08:26:59;25.55;;;17.60;;
39454;SDS011;25155;41.890;23.446;2023-03-14T08:29:26;26.15;;;16.75;;
39454;SDS011;25155;41.890;23.446;2023-03-14T08:31:53;28.30;;;19.58;;
39454;SDS011;25155;41.890;23.446;2023-03-14T08:34:21;25.00;;;18.65;;
39454;SDS011;25155;41.890;23.446;2023-03-14T08:36:48;28.38;;;19.88;;
39454;SDS011;25155;41.890;23.446;2023-03-14T08:39:15;29.15;;;20.63;;
39454;SDS011;25155;41.890;23.446;2023-03-14T08:41:43;23.17;;;16.08;;
39454;SDS011;25155;41.890;23.446;2023-03-14T08:44:11;20.33;;;14.57;;
39454;SDS011;25155;41.890;23.446;2023-03-14T08:46:38;22.05;;;16.88;;
39454;SDS011;25155;41.890;23.446;2023-03-14T08:49:05;24.67;;;16.00;;
39454;SDS011;25155;41.890;23.446;2023-03-14T08:51:32;17.35;;;13.38;;
39454;SDS011;25155;41.890;23.446;2023-03-14T08:53:59;23.33;;;14.90;;
39454;SDS011;25155;41.890;23.446;2023-03-14T08:56:26;21.95;;;16.17;;
39454;SDS011;25155;41.890;23.446;2023-03-14T08:58:53;22.85;;;15.60;;
39454;SDS011;25155;41.890;23.446;2023-03-14T09:01:22;20.52;;;15.07;;
39454;SDS011;25155;41.890;23.446;2023-03-14T09:03:51;19.87;;;15.13;;
39454;SDS011;25155;41.890;23.446;2023-03-14T09:06:18;22.50;;;14.65;;
39454;SDS011;25155;41.890;23.446;2023-03-14T09:08:45;20.58;;;13.80;;
39454;SDS011;25155;41.890;23.446;2023-03-14T09:11:12;19.27;;;12.85;;
39454;SDS011;25155;41.890;23.446;2023-03-14T09:13:40;21.00;;;15.60;;
39454;SDS011;25155;41.890;23.446;2023-03-14T09:16:07;20.92;;;14.18;;
39454;SDS011;25155;41.890;23.446;2023-03-14T09:18:37;18.23;;;12.57;;
39454;SDS011;25155;41.890;23.446;2023-03-14T09:21:05;17.67;;;11.98;;
39454;SDS011;25155;41.890;23.446;2023-03-14T09:23:32;18.42;;;13.25;;
39454;SDS011;25155;41.890;23.446;2023-03-14T09:25:59;18.27;;;11.88;;
39454;SDS011;25155;41.890;23.446;2023-03-14T09:28:27;16.15;;;11.45;;
39454;SDS011;25155;41.890;23.446;2023-03-14T09:30:55;16.08;;;11.20;;
39454;SDS011;25155;41.890;23.446;2023-03-14T09:33:23;17.60;;;12.07;;
39454;SDS011;25155;41.890;23.446;2023-03-14T09:35:51;17.23;;;11.32;;
39454;SDS011;25155;41.890;23.446;2023-03-14T09:38:18;15.75;;;10.45;;
39454;SDS011;25155;41.890;23.446;2023-03-14T09:40:46;12.55;;;9.05;;
39454;SDS011;25155;41.890;23.446;2023-03-14T09:43:14;13.27;;;8.57;;
39454;SDS011;25155;41.890;23.446;2023-03-14T09:45:43;12.00;;;7.53;;
39454;SDS011;25155;41.890;23.446;2023-03-14T09:48:15;9.30;;;5.47;;
39454;SDS011;25155;41.890;23.446;2023-03-14T09:50:45;8.45;;;5.45;;
39454;SDS011;25155;41.890;23.446;2023-03-14T09:53:18;7.75;;;5.20;;
39454;SDS011;25155;41.890;23.446;2023-03-14T09:55:49;6.75;;;4.55;;
39454;SDS011;25155;41.890;23.446;2023-03-14T09:58:18;6.60;;;4.22;;
39454;SDS011;25155;41.890;23.446;2023-03-14T10:00:47;5.93;;;3.80;;
39454;SDS011;25155;41.890;23.446;2023-03-14T10:03:23;5.75;;;3.92;;
39454;SDS011;25155;41.890;23.446;2023-03-14T10:05:53;7.20;;;4.35;;
39454;SDS011;25155;41.890;23.446;2023-03-14T10:08:23;5.43;;;3.70;;
39454;SDS011;25155;41.890;23.446;2023-03-14T10:10:50;8.43;;;5.25;;
39454;SDS011;25155;41.890;23.446;2023-03-14T10:13:20;6.57;;;4.45;;
39454;SDS011;25155;41.890;23.446;2023-03-14T10:15:51;7.43;;;4.28;;
39454;SDS011;25155;41.890;23.446;2023-03-14T10:18:19;8.50;;;4.75;;
39454;SDS011;25155;41.890;23.446;2023-03-14T10:21:16;6.28;;;4.07;;
39454;SDS011;25155;41.890;23.446;2023-03-14T10:24:17;7.25;;;4.60;;
39454;SDS011;25155;41.890;23.446;2023-03-14T10:26:52;6.97;;;4.55;;
39454;SDS011;25155;41.890;23.446;2023-03-14T10:29:20;7.60;;;4.63;;
39454;SDS011;25155;41.890;23.446;2023-03-14T10:31:50;7.40;;;4.28;;
39454;SDS011;25155;41.890;23.446;2023-03-14T10:36:51;6.63;;;4.80;;
39454;SDS011;25155;41.890;23.446;2023-03-14T10:41:54;6.55;;;4.60;;
39454;SDS011;25155;41.890;23.446;2023-03-14T10:44:29;8.48;;;5.78;;
39454;SDS011;25155;41.890;23.446;2023-03-14T10:46:58;6.72;;;4.82;;
39454;SDS011;25155;41.890;23.446;2023-03-14T10:49:28;9.15;;;5.82;;
39454;SDS011;25155;41.890;23.446;2023-03-14T10:51:58;8.43;;;5.63;;
39454;SDS011;25155;41.890;23.446;2023-03-14T10:54:31;8.93;;;5.75;;
39454;SDS011;25155;41.890;23.446;2023-03-14T10:56:59;7.50;;;4.88;;
39454;SDS011;25155;41.890;23.446;2023-03-14T10:59:29;6.95;;;4.70;;
39454;SDS011;25155;41.890;23.446;2023-03-14T11:02:03;7.63;;;5.38;;
39454;SDS011;25155;41.890;23.446;2023-03-14T11:04:48;6.75;;;4.60;;
39454;SDS011;25155;41.890;23.446;2023-03-14T11:07:27;6.88;;;4.15;;
39454;SDS011;25155;41.890;23.446;2023-03-14T11:10:02;6.68;;;4.68;;
39454;SDS011;25155;41.890;23.446;2023-03-14T11:12:41;7.75;;;4.80;;
39454;SDS011;25155;41.890;23.446;2023-03-14T11:15:18;7.72;;;4.90;;
39454;SDS011;25155;41.890;23.446;2023-03-14T11:17:53;6.13;;;4.28;;
39454;SDS011;25155;41.890;23.446;2023-03-14T11:20:46;6.55;;;4.57;;
39454;SDS011;25155;41.890;23.446;2023-03-14T11:23:22;6.60;;;4.65;;
39454;SDS011;25155;41.890;23.446;2023-03-14T11:25:56;6.65;;;4.32;;
39454;SDS011;25155;41.890;23.446;2023-03-14T11:28:29;6.15;;;4.47;;
39454;SDS011;25155;41.890;23.446;2023-03-14T11:31:04;6.13;;;4.30;;
39454;SDS011;25155;41.890;23.446;2023-03-14T11:33:46;6.60;;;4.05;;
39454;SDS011;25155;41.890;23.446;2023-03-14T11:36:17;6.32;;;4.25;;
39454;SDS011;25155;41.890;23.446;2023-03-14T11:38:49;6.72;;;4.20;;
39454;SDS011;25155;41.890;23.446;2023-03-14T11:41:20;6.85;;;4.63;;
39454;SDS011;25155;41.890;23.446;2023-03-14T11:43:52;7.53;;;4.20;;
39454;SDS011;25155;41.890;23.446;2023-03-14T11:46:22;5.95;;;3.85;;
39454;SDS011;25155;41.890;23.446;2023-03-14T11:48:57;5.75;;;3.88;;
39454;SDS011;25155;41.890;23.446;2023-03-14T11:51:32;5.97;;;4.10;;
39454;SDS011;25155;41.890;23.446;2023-03-14T11:54:03;5.43;;;3.63;;
39454;SDS011;25155;41.890;23.446;2023-03-14T11:56:41;5.72;;;3.70;;
39454;SDS011;25155;41.890;23.446;2023-03-14T11:59:14;6.20;;;3.80;;
39454;SDS011;25155;41.890;23.446;2023-03-14T12:01:51;5.90;;;3.50;;
39454;SDS011;25155;41.890;23.446;2023-03-14T12:04:31;6.22;;;4.00;;
39454;SDS011;25155;41.890;23.446;2023-03-14T12:07:17;7.03;;;4.28;;
39454;SDS011;25155;41.890;23.446;2023-03-14T12:09:48;6.35;;;4.32;;
39454;SDS011;25155;41.890;23.446;2023-03-14T12:12:20;6.32;;;4.07;;
39454;SDS011;25155;41.890;23.446;2023-03-14T12:14:52;6.40;;;3.80;;
39454;SDS011;25155;41.890;23.446;2023-03-14T12:17:22;6.05;;;3.45;;
39454;SDS011;25155;41.890;23.446;2023-03-14T12:20:02;5.53;;;3.50;;
39454;SDS011;25155;41.890;23.446;2023-03-14T12:22:33;6.07;;;4.10;;
39454;SDS011;25155;41.890;23.446;2023-03-14T12:25:04;6.55;;;4.30;;
39454;SDS011;25155;41.890;23.446;2023-03-14T12:27:43;6.35;;;3.92;;
39454;SDS011;25155;41.890;23.446;2023-03-14T12:30:18;5.60;;;3.60;;
39454;SDS011;25155;41.890;23.446;2023-03-14T12:33:11;6.05;;;4.25;;
39454;SDS011;25155;41.890;23.446;2023-03-14T12:35:57;9.88;;;4.65;;
39454;SDS011;25155;41.890;23.446;2023-03-14T12:38:44;5.88;;;3.90;;
39454;SDS011;25155;41.890;23.446;2023-03-14T12:41:20;5.88;;;3.70;;
39454;SDS011;25155;41.890;23.446;2023-03-14T12:43:52;5.07;;;3.53;;
39454;SDS011;25155;41.890;23.446;2023-03-14T12:46:23;6.03;;;3.60;;
39454;SDS011;25155;41.890;23.446;2023-03-14T12:48:55;7.00;;;3.83;;
39454;SDS011;25155;41.890;23.446;2023-03-14T12:51:34;6.20;;;3.75;;
39454;SDS011;25155;41.890;23.446;2023-03-14T12:54:15;5.85;;;4.00;;
39454;SDS011;25155;41.890;23.446;2023-03-14T12:59:56;5.35;;;3.42;;
39454;SDS011;25155;41.890;23.446;2023-03-14T13:02:25;5.82;;;4.03;;
39454;SDS011;25155;41.890;23.446;2023-03-14T13:04:59;6.22;;;3.55;;
39454;SDS011;25155;41.890;23.446;2023-03-14T13:07:33;6.05;;;3.85;;
39454;SDS011;25155;41.890;23.446;2023-03-14T13:12:50;8.20;;;3.92;;
39454;SDS011;25155;41.890;23.446;2023-03-14T13:15:28;7.45;;;3.75;;
39454;SDS011;25155;41.890;23.446;2023-03-14T13:18:01;6.03;;;3.58;;
39454;SDS011;25155;41.890;23.446;2023-03-14T13:20:35;4.63;;;3.13;;
39454;SDS011;25155;41.890;23.446;2023-03-14T13:23:04;6.00;;;3.60;;
39454;SDS011;25155;41.890;23.446;2023-03-14T13:25:32;5.03;;;3.05;;
39454;SDS011;25155;41.890;23.446;2023-03-14T13:28:01;5.13;;;3.10;;
39454;SDS011;25155;41.890;23.446;2023-03-14T13:30:35;5.15;;;3.25;;
39454;SDS011;25155;41.890;23.446;2023-03-14T13:33:05;5.20;;;3.45;;
39454;SDS011;25155;41.890;23.446;2023-03-14T13:35:38;5.45;;;3.13;;
39454;SDS011;25155;41.890;23.446;2023-03-14T13:38:18;4.10;;;2.70;;
39454;SDS011;25155;41.890;23.446;2023-03-14T13:40:46;4.35;;;2.80;;
39454;SDS011;25155;41.890;23.446;2023-03-14T13:43:16;3.78;;;2.60;;
39454;SDS011;25155;41.890;23.446;2023-03-14T13:45:48;4.57;;;2.90;;
39454;SDS011;25155;41.890;23.446;2023-03-14T13:48:18;4.05;;;2.63;;
39454;SDS011;25155;41.890;23.446;2023-03-14T13:50:49;4.55;;;2.80;;
39454;SDS011;25155;41.890;23.446;2023-03-14T13:53:18;4.20;;;2.50;;
39454;SDS011;25155;41.890;23.446;2023-03-14T13:55:45;4.43;;;2.90;;
39454;SDS011;25155;41.890;23.446;2023-03-14T13:58:19;4.93;;;2.90;;
39454;SDS011;25155;41.890;23.446;2023-03-14T14:03:32;4.53;;;2.60;;
39454;SDS011;25155;41.890;23.446;2023-03-14T14:06:10;6.35;;;2.95;;
39454;SDS011;25155;41.890;23.446;2023-03-14T14:08:47;4.28;;;2.80;;
39454;SDS011;25155;41.890;23.446;2023-03-14T14:11:18;4.20;;;2.58;;
39454;SDS011;25155;41.890;23.446;2023-03-14T14:13:49;6.00;;;3.08;;
39454;SDS011;25155;41.890;23.446;2023-03-14T14:16:18;3.60;;;2.45;;
39454;SDS011;25155;41.890;23.446;2023-03-14T14:18:51;3.78;;;2.45;;
39454;SDS011;25155;41.890;23.446;2023-03-14T14:21:21;4.70;;;2.63;;
39454;SDS011;25155;41.890;23.446;2023-03-14T14:23:49;5.22;;;2.70;;
39454;SDS011;25155;41.890;23.446;2023-03-14T14:26:17;3.80;;;2.28;;
39454;SDS011;25155;41.890;23.446;2023-03-14T14:28:46;4.30;;;2.50;;
39454;SDS011;25155;41.890;23.446;2023-03-14T14:31:19;4.82;;;2.50;;
39454;SDS011;25155;41.890;23.446;2023-03-14T14:33:54;5.57;;;2.88;;
39454;SDS011;25155;41.890;23.446;2023-03-14T14:36:23;3.97;;;2.50;;
39454;SDS011;25155;41.890;23.446;2023-03-14T14:38:53;4.13;;;2.50;;
39454;SDS011;25155;41.890;23.446;2023-03-14T14:41:26;4.03;;;2.40;;
39454;SDS011;25155;41.890;23.446;2023-03-14T14:43:55;4.00;;;2.72;;
39454;SDS011;25155;41.890;23.446;2023-03-14T14:46:25;6.65;;;4.25;;
39454;SDS011;25155;41.890;23.446;2023-03-14T14:48:56;7.00;;;4.65;;
39454;SDS011;25155;41.890;23.446;2023-03-14T14:51:25;6.47;;;3.88;;
39454;SDS011;25155;41.890;23.446;2023-03-14T14:54:04;4.72;;;3.08;;
39454;SDS011;25155;41.890;23.446;2023-03-14T14:56:37;6.60;;;4.00;;